Aérodrome :
LOGIN :

S'inscrire | Disclaimer

   EN    FR    IT 

 










Légende :    VFR   VFR Marginal   IFR   IFR Intensif   IFR Très Intensif
Visi : 
Plafond : 
>= 8 km
>= 3000ft
5 à 8 km
1000 à 3000 ft
1500m à 5 km
500 à 1000 ft
800 à 1500m
200 à 500 ft
< 800m
< 200 ft
Symboles :   Orages  Brouillard  Fortes neiges  Fortes précipitations  Vent > 20 kt
SIGMETs :   Divers  Orages  Givrage  Turbulence  Onde Orograph.  Cendres Volcan.






- Altitude de l'aérodrome : 794 ft


LKCV - Čáslav Air Base

DERNIER METAR :
  • 282100Z 31005KT CAVOK 12/08 Q1026 NOSIG RMK BLU BLU

METARs EXPIRÉS :
  • 282030Z 31006KT 9999 BKN046 12/08 Q1026 NOSIG RMK BLU BLU
  • 282000Z 32004KT CAVOK 12/08 Q1026 NOSIG RMK BLU BLU
  • 281930Z 29003KT CAVOK 12/08 Q1026 NOSIG RMK BLU BLU
  • 281900Z VRB02KT 9999 FEW044 BKN070 11/09 Q1026 NOSIG RMK BLU BLU
  • 281830Z 21003KT CAVOK 12/09 Q1025 NOSIG RMK BLU BLU

TAF TAF LKCV
Valide du 28 à 18h jusqu'au 29 à 18h UTC


281700Z 2818/2918 06006KT 9999 BKN040
TEMPO 2818/2820 03010KT 8000 SHRA BKN030
BECMG 2821/2823 30004KT
BECMG 2910/2912 02014KT



MET'MAP, la Météo Aéronautique d'un coup d'oeil ! - Copyright ORBIFLY Décembre 2007 - Disclaimer

ORBIFLY MET'MAP TEAM :

Programmation & Développement : Alexandra Zaïnal
Sur une idée originale de : Baudouin d'Aumeries
Assistance à la programmation : Marc-Olivier Méhu
Soutien technique & logistique : Manuel Goepfert

Contact : metmap@orbifly.com




SOURCES & CREDITS :

   NOAA